sensor_id;sensor_type;location;lat;lon;timestamp;temperature;humidity
12833;DHT22;6483;51.310;4.462;2023-09-19T00:01:09;15.20;99.90
12833;DHT22;6483;51.310;4.462;2023-09-19T00:03:40;15.20;99.90
12833;DHT22;6483;51.310;4.462;2023-09-19T00:06:07;15.20;99.90
12833;DHT22;6483;51.310;4.462;2023-09-19T00:08:34;15.20;99.90
12833;DHT22;6483;51.310;4.462;2023-09-19T00:11:00;15.20;99.90
12833;DHT22;6483;51.310;4.462;2023-09-19T00:13:32;15.20;99.90
12833;DHT22;6483;51.310;4.462;2023-09-19T00:15:57;15.20;99.90
12833;DHT22;6483;51.310;4.462;2023-09-19T00:18:25;15.20;99.90
12833;DHT22;6483;51.310;4.462;2023-09-19T00:20:58;15.20;99.90
12833;DHT22;6483;51.310;4.462;2023-09-19T00:23:24;15.20;99.90
12833;DHT22;6483;51.310;4.462;2023-09-19T00:25:50;15.10;99.90
12833;DHT22;6483;51.310;4.462;2023-09-19T00:28:19;15.10;99.90
12833;DHT22;6483;51.310;4.462;2023-09-19T00:30:46;15.00;99.90
12833;DHT22;6483;51.310;4.462;2023-09-19T00:33:29;15.10;99.90
12833;DHT22;6483;51.310;4.462;2023-09-19T00:35:56;15.10;99.90
12833;DHT22;6483;51.310;4.462;2023-09-19T00:38:30;15.00;99.90
12833;DHT22;6483;51.310;4.462;2023-09-19T00:41:00;15.00;99.90
12833;DHT22;6483;51.310;4.462;2023-09-19T00:43:25;15.00;99.90
12833;DHT22;6483;51.310;4.462;2023-09-19T00:45:55;15.00;99.90
12833;DHT22;6483;51.310;4.462;2023-09-19T00:48:22;15.00;99.90
12833;DHT22;6483;51.310;4.462;2023-09-19T00:50:49;15.00;99.90
12833;DHT22;6483;51.310;4.462;2023-09-19T00:53:20;15.00;99.90
12833;DHT22;6483;51.310;4.462;2023-09-19T00:55:51;15.00;99.90
12833;DHT22;6483;51.310;4.462;2023-09-19T00:58:27;15.00;99.90
12833;DHT22;6483;51.310;4.462;2023-09-19T01:00:58;15.00;99.90
12833;DHT22;6483;51.310;4.462;2023-09-19T01:03:24;15.00;99.90
12833;DHT22;6483;51.310;4.462;2023-09-19T01:05:50;14.90;99.90
12833;DHT22;6483;51.310;4.462;2023-09-19T01:08:18;14.90;99.90
12833;DHT22;6483;51.310;4.462;2023-09-19T01:10:51;14.80;99.90
12833;DHT22;6483;51.310;4.462;2023-09-19T01:13:56;14.80;99.90
12833;DHT22;6483;51.310;4.462;2023-09-19T01:16:45;14.80;99.90
12833;DHT22;6483;51.310;4.462;2023-09-19T01:22:21;14.70;99.90
12833;DHT22;6483;51.310;4.462;2023-09-19T01:25:13;14.70;99.90
12833;DHT22;6483;51.310;4.462;2023-09-19T01:30:40;14.70;99.90
12833;DHT22;6483;51.310;4.462;2023-09-19T01:33:09;14.70;99.90
12833;DHT22;6483;51.310;4.462;2023-09-19T01:35:38;14.70;99.90
12833;DHT22;6483;51.310;4.462;2023-09-19T01:38:07;14.70;99.90
12833;DHT22;6483;51.310;4.462;2023-09-19T01:40:42;14.70;99.90
12833;DHT22;6483;51.310;4.462;2023-09-19T01:43:17;14.70;99.90
12833;DHT22;6483;51.310;4.462;2023-09-19T01:46:40;14.60;99.90
12833;DHT22;6483;51.310;4.462;2023-09-19T01:49:15;14.60;99.90
12833;DHT22;6483;51.310;4.462;2023-09-19T01:51:51;14.60;99.90
12833;DHT22;6483;51.310;4.462;2023-09-19T01:54:26;14.50;99.90
12833;DHT22;6483;51.310;4.462;2023-09-19T01:57:34;14.50;99.90
12833;DHT22;6483;51.310;4.462;2023-09-19T02:00:07;14.50;99.90
12833;DHT22;6483;51.310;4.462;2023-09-19T02:02:47;14.40;99.90
12833;DHT22;6483;51.310;4.462;2023-09-19T02:05:22;14.40;99.90
12833;DHT22;6483;51.310;4.462;2023-09-19T02:07:57;14.40;99.90
12833;DHT22;6483;51.310;4.462;2023-09-19T02:10:24;14.40;99.90
12833;DHT22;6483;51.310;4.462;2023-09-19T02:12:50;14.40;99.90
12833;DHT22;6483;51.310;4.462;2023-09-19T02:15:16;14.40;99.90
12833;DHT22;6483;51.310;4.462;2023-09-19T02:17:45;14.30;99.90
12833;DHT22;6483;51.310;4.462;2023-09-19T02:20:12;14.40;99.90
12833;DHT22;6483;51.310;4.462;2023-09-19T02:22:39;14.40;99.90
12833;DHT22;6483;51.310;4.462;2023-09-19T02:25:05;14.40;99.90
12833;DHT22;6483;51.310;4.462;2023-09-19T02:27:33;14.40;99.90
12833;DHT22;6483;51.310;4.462;2023-09-19T02:29:58;14.40;99.90
12833;DHT22;6483;51.310;4.462;2023-09-19T02:32:24;14.50;99.90
12833;DHT22;6483;51.310;4.462;2023-09-19T02:34:50;14.50;99.90
12833;DHT22;6483;51.310;4.462;2023-09-19T02:37:20;14.50;99.90
12833;DHT22;6483;51.310;4.462;2023-09-19T02:39:46;14.50;99.90
12833;DHT22;6483;51.310;4.462;2023-09-19T02:42:15;14.60;99.90
12833;DHT22;6483;51.310;4.462;2023-09-19T02:44:41;14.60;99.90
12833;DHT22;6483;51.310;4.462;2023-09-19T02:47:09;14.60;99.90
12833;DHT22;6483;51.310;4.462;2023-09-19T02:49:38;14.60;99.90
12833;DHT22;6483;51.310;4.462;2023-09-19T02:52:05;14.60;99.90
12833;DHT22;6483;51.310;4.462;2023-09-19T02:54:32;14.70;99.90
12833;DHT22;6483;51.310;4.462;2023-09-19T02:56:58;14.70;99.90
12833;DHT22;6483;51.310;4.462;2023-09-19T02:59:27;14.70;99.90
12833;DHT22;6483;51.310;4.462;2023-09-19T03:01:56;14.60;99.90
12833;DHT22;6483;51.310;4.462;2023-09-19T03:04:26;14.60;99.90
12833;DHT22;6483;51.310;4.462;2023-09-19T03:06:53;14.60;99.90
12833;DHT22;6483;51.310;4.462;2023-09-19T03:09:25;14.70;99.90
12833;DHT22;6483;51.310;4.462;2023-09-19T03:11:51;14.70;99.90
12833;DHT22;6483;51.310;4.462;2023-09-19T03:14:17;14.70;99.90
12833;DHT22;6483;51.310;4.462;2023-09-19T03:16:45;14.70;99.90
12833;DHT22;6483;51.310;4.462;2023-09-19T03:19:11;14.70;99.90
12833;DHT22;6483;51.310;4.462;2023-09-19T03:21:43;14.70;99.90
12833;DHT22;6483;51.310;4.462;2023-09-19T03:24:09;14.70;99.90
12833;DHT22;6483;51.310;4.462;2023-09-19T03:26:34;14.70;99.90
12833;DHT22;6483;51.310;4.462;2023-09-19T03:29:03;14.70;99.90
12833;DHT22;6483;51.310;4.462;2023-09-19T03:31:31;14.70;99.90
12833;DHT22;6483;51.310;4.462;2023-09-19T03:34:00;14.70;99.90
12833;DHT22;6483;51.310;4.462;2023-09-19T03:36:25;14.60;99.90
12833;DHT22;6483;51.310;4.462;2023-09-19T03:38:55;14.60;99.90
12833;DHT22;6483;51.310;4.462;2023-09-19T03:41:20;14.70;99.90
12833;DHT22;6483;51.310;4.462;2023-09-19T03:43:46;14.70;99.90
12833;DHT22;6483;51.310;4.462;2023-09-19T03:46:12;14.60;99.90
12833;DHT22;6483;51.310;4.462;2023-09-19T03:48:40;14.70;99.90
12833;DHT22;6483;51.310;4.462;2023-09-19T03:51:09;14.70;99.90
12833;DHT22;6483;51.310;4.462;2023-09-19T03:53:35;14.80;99.90
12833;DHT22;6483;51.310;4.462;2023-09-19T03:56:01;14.80;99.90
12833;DHT22;6483;51.310;4.462;2023-09-19T03:58:31;14.90;99.90
12833;DHT22;6483;51.310;4.462;2023-09-19T04:01:00;14.90;99.90
12833;DHT22;6483;51.310;4.462;2023-09-19T04:03:26;14.80;99.90
12833;DHT22;6483;51.310;4.462;2023-09-19T04:06:02;14.80;99.90
12833;DHT22;6483;51.310;4.462;2023-09-19T04:08:28;14.80;99.90
12833;DHT22;6483;51.310;4.462;2023-09-19T04:10:55;14.80;99.90
12833;DHT22;6483;51.310;4.462;2023-09-19T04:13:21;14.80;99.90
12833;DHT22;6483;51.310;4.462;2023-09-19T04:15:52;14.70;99.90
12833;DHT22;6483;51.310;4.462;2023-09-19T04:18:18;14.60;99.90
12833;DHT22;6483;51.310;4.462;2023-09-19T04:20:49;14.60;99.90
12833;DHT22;6483;51.310;4.462;2023-09-19T04:23:16;14.50;99.90
12833;DHT22;6483;51.310;4.462;2023-09-19T04:25:43;14.50;99.90
12833;DHT22;6483;51.310;4.462;2023-09-19T04:28:09;14.50;99.90
12833;DHT22;6483;51.310;4.462;2023-09-19T04:30:41;14.40;99.90
12833;DHT22;6483;51.310;4.462;2023-09-19T04:33:07;14.40;99.90
12833;DHT22;6483;51.310;4.462;2023-09-19T04:35:33;14.40;99.90
12833;DHT22;6483;51.310;4.462;2023-09-19T04:37:59;14.40;99.90
12833;DHT22;6483;51.310;4.462;2023-09-19T04:40:28;14.40;99.90
12833;DHT22;6483;51.310;4.462;2023-09-19T04:42:56;14.40;99.90
12833;DHT22;6483;51.310;4.462;2023-09-19T04:45:25;14.40;99.90
12833;DHT22;6483;51.310;4.462;2023-09-19T04:47:52;14.30;99.90
12833;DHT22;6483;51.310;4.462;2023-09-19T04:50:19;14.30;99.90
12833;DHT22;6483;51.310;4.462;2023-09-19T04:52:49;14.20;99.90
12833;DHT22;6483;51.310;4.462;2023-09-19T04:55:17;14.20;99.90
12833;DHT22;6483;51.310;4.462;2023-09-19T04:57:49;14.20;99.90
12833;DHT22;6483;51.310;4.462;2023-09-19T05:00:20;14.20;99.90
12833;DHT22;6483;51.310;4.462;2023-09-19T05:02:52;14.20;99.90
12833;DHT22;6483;51.310;4.462;2023-09-19T05:05:18;14.20;99.90
12833;DHT22;6483;51.310;4.462;2023-09-19T05:07:47;14.20;99.90
12833;DHT22;6483;51.310;4.462;2023-09-19T05:10:13;14.20;99.90
12833;DHT22;6483;51.310;4.462;2023-09-19T05:12:40;14.20;99.90
12833;DHT22;6483;51.310;4.462;2023-09-19T05:15:07;14.20;99.90
12833;DHT22;6483;51.310;4.462;2023-09-19T05:17:34;14.20;99.90
12833;DHT22;6483;51.310;4.462;2023-09-19T05:20:01;14.20;99.90
12833;DHT22;6483;51.310;4.462;2023-09-19T05:22:41;14.20;99.90
12833;DHT22;6483;51.310;4.462;2023-09-19T05:25:09;14.20;99.90
12833;DHT22;6483;51.310;4.462;2023-09-19T05:27:35;14.20;99.90
12833;DHT22;6483;51.310;4.462;2023-09-19T05:30:04;14.10;99.90
12833;DHT22;6483;51.310;4.462;2023-09-19T05:32:30;14.10;99.90
12833;DHT22;6483;51.310;4.462;2023-09-19T05:34:55;14.10;99.90
12833;DHT22;6483;51.310;4.462;2023-09-19T05:37:22;14.10;99.90
12833;DHT22;6483;51.310;4.462;2023-09-19T05:39:54;14.10;99.90
12833;DHT22;6483;51.310;4.462;2023-09-19T05:42:23;14.10;99.90
12833;DHT22;6483;51.310;4.462;2023-09-19T05:44:49;14.10;99.90
12833;DHT22;6483;51.310;4.462;2023-09-19T05:47:17;14.20;99.90
12833;DHT22;6483;51.310;4.462;2023-09-19T05:49:43;14.20;99.90
12833;DHT22;6483;51.310;4.462;2023-09-19T05:52:09;14.30;99.90
12833;DHT22;6483;51.310;4.462;2023-09-19T05:54:35;14.40;99.90
12833;DHT22;6483;51.310;4.462;2023-09-19T05:57:01;14.40;99.90
12833;DHT22;6483;51.310;4.462;2023-09-19T05:59:28;14.40;99.90
12833;DHT22;6483;51.310;4.462;2023-09-19T06:01:54;14.40;99.90
12833;DHT22;6483;51.310;4.462;2023-09-19T06:04:20;14.40;99.90
12833;DHT22;6483;51.310;4.462;2023-09-19T06:06:47;14.30;99.90
12833;DHT22;6483;51.310;4.462;2023-09-19T06:09:14;14.30;99.90
12833;DHT22;6483;51.310;4.462;2023-09-19T06:11:43;14.20;99.90
12833;DHT22;6483;51.310;4.462;2023-09-19T06:14:09;14.30;99.90
12833;DHT22;6483;51.310;4.462;2023-09-19T06:16:38;14.30;99.90
12833;DHT22;6483;51.310;4.462;2023-09-19T06:19:06;14.40;99.90
12833;DHT22;6483;51.310;4.462;2023-09-19T06:21:38;14.50;99.90
12833;DHT22;6483;51.310;4.462;2023-09-19T06:24:04;14.60;99.90
12833;DHT22;6483;51.310;4.462;2023-09-19T06:26:31;14.70;99.90
12833;DHT22;6483;51.310;4.462;2023-09-19T06:28:57;14.70;99.90
12833;DHT22;6483;51.310;4.462;2023-09-19T06:31:28;14.70;99.90
12833;DHT22;6483;51.310;4.462;2023-09-19T06:33:55;14.70;99.90
12833;DHT22;6483;51.310;4.462;2023-09-19T06:36:21;14.70;99.90
12833;DHT22;6483;51.310;4.462;2023-09-19T06:38:50;14.70;99.90
12833;DHT22;6483;51.310;4.462;2023-09-19T06:41:21;14.80;99.90
12833;DHT22;6483;51.310;4.462;2023-09-19T06:43:50;14.90;99.90
12833;DHT22;6483;51.310;4.462;2023-09-19T06:46:22;14.90;99.90
12833;DHT22;6483;51.310;4.462;2023-09-19T06:48:47;15.00;99.90
12833;DHT22;6483;51.310;4.462;2023-09-19T06:51:14;15.00;99.90
12833;DHT22;6483;51.310;4.462;2023-09-19T06:53:44;15.00;99.90
12833;DHT22;6483;51.310;4.462;2023-09-19T06:56:10;15.10;99.90
12833;DHT22;6483;51.310;4.462;2023-09-19T06:58:36;15.10;99.90
12833;DHT22;6483;51.310;4.462;2023-09-19T07:01:02;15.10;99.90
12833;DHT22;6483;51.310;4.462;2023-09-19T07:03:28;15.10;99.90
12833;DHT22;6483;51.310;4.462;2023-09-19T07:05:54;15.10;99.90
12833;DHT22;6483;51.310;4.462;2023-09-19T07:08:21;15.20;99.90
12833;DHT22;6483;51.310;4.462;2023-09-19T07:10:47;15.30;99.90
12833;DHT22;6483;51.310;4.462;2023-09-19T07:13:18;15.40;99.90
12833;DHT22;6483;51.310;4.462;2023-09-19T07:15:44;15.40;99.90
12833;DHT22;6483;51.310;4.462;2023-09-19T07:18:16;15.50;99.90
12833;DHT22;6483;51.310;4.462;2023-09-19T07:20:46;15.60;99.90
12833;DHT22;6483;51.310;4.462;2023-09-19T07:23:23;15.60;99.90
12833;DHT22;6483;51.310;4.462;2023-09-19T07:25:50;15.60;99.90
12833;DHT22;6483;51.310;4.462;2023-09-19T07:28:16;15.60;99.90
12833;DHT22;6483;51.310;4.462;2023-09-19T07:30:41;15.70;99.90
12833;DHT22;6483;51.310;4.462;2023-09-19T07:33:08;15.80;99.90
12833;DHT22;6483;51.310;4.462;2023-09-19T07:35:37;15.80;99.90
12833;DHT22;6483;51.310;4.462;2023-09-19T07:38:07;15.80;99.90
12833;DHT22;6483;51.310;4.462;2023-09-19T07:40:33;15.80;99.90
12833;DHT22;6483;51.310;4.462;2023-09-19T07:42:59;15.80;99.90
12833;DHT22;6483;51.310;4.462;2023-09-19T07:45:28;15.90;99.90
12833;DHT22;6483;51.310;4.462;2023-09-19T07:47:55;15.90;99.90
12833;DHT22;6483;51.310;4.462;2023-09-19T07:50:24;16.00;99.90
12833;DHT22;6483;51.310;4.462;2023-09-19T07:52:52;16.00;99.90
12833;DHT22;6483;51.310;4.462;2023-09-19T07:55:24;16.10;99.90
12833;DHT22;6483;51.310;4.462;2023-09-19T07:57:52;16.30;99.90
12833;DHT22;6483;51.310;4.462;2023-09-19T08:00:18;16.30;99.90
12833;DHT22;6483;51.310;4.462;2023-09-19T08:02:45;16.30;99.90
12833;DHT22;6483;51.310;4.462;2023-09-19T08:05:11;16.30;99.90
12833;DHT22;6483;51.310;4.462;2023-09-19T08:07:42;16.30;99.90
12833;DHT22;6483;51.310;4.462;2023-09-19T08:10:09;16.40;99.90
12833;DHT22;6483;51.310;4.462;2023-09-19T08:12:43;16.40;99.90
12833;DHT22;6483;51.310;4.462;2023-09-19T08:15:16;16.50;99.90
12833;DHT22;6483;51.310;4.462;2023-09-19T08:17:45;16.50;99.90
12833;DHT22;6483;51.310;4.462;2023-09-19T08:20:12;16.60;99.90
12833;DHT22;6483;51.310;4.462;2023-09-19T08:22:48;16.70;99.90
12833;DHT22;6483;51.310;4.462;2023-09-19T08:25:15;16.90;99.90
12833;DHT22;6483;51.310;4.462;2023-09-19T08:28:01;17.10;99.90
12833;DHT22;6483;51.310;4.462;2023-09-19T08:30:34;17.20;99.90
12833;DHT22;6483;51.310;4.462;2023-09-19T08:33:03;17.50;99.90
12833;DHT22;6483;51.310;4.462;2023-09-19T08:35:32;18.00;99.90
12833;DHT22;6483;51.310;4.462;2023-09-19T08:37:58;18.30;99.90
12833;DHT22;6483;51.310;4.462;2023-09-19T08:40:26;18.90;99.90
12833;DHT22;6483;51.310;4.462;2023-09-19T08:42:56;18.60;99.90
12833;DHT22;6483;51.310;4.462;2023-09-19T08:45:40;18.50;99.90
12833;DHT22;6483;51.310;4.462;2023-09-19T08:48:26;18.00;99.90
12833;DHT22;6483;51.310;4.462;2023-09-19T08:51:03;17.80;99.90
12833;DHT22;6483;51.310;4.462;2023-09-19T08:53:52;17.50;99.90
12833;DHT22;6483;51.310;4.462;2023-09-19T08:56:21;17.40;99.90
12833;DHT22;6483;51.310;4.462;2023-09-19T08:59:05;17.70;99.90
12833;DHT22;6483;51.310;4.462;2023-09-19T09:01:36;18.30;99.90
12833;DHT22;6483;51.310;4.462;2023-09-19T09:04:03;18.70;99.90
12833;DHT22;6483;51.310;4.462;2023-09-19T09:06:29;18.80;99.90
12833;DHT22;6483;51.310;4.462;2023-09-19T09:08:58;18.80;99.90
12833;DHT22;6483;51.310;4.462;2023-09-19T09:11:25;18.90;99.90
12833;DHT22;6483;51.310;4.462;2023-09-19T09:13:51;19.00;99.90
12833;DHT22;6483;51.310;4.462;2023-09-19T09:16:19;19.20;99.90
12833;DHT22;6483;51.310;4.462;2023-09-19T09:18:45;20.10;99.90
12833;DHT22;6483;51.310;4.462;2023-09-19T09:21:12;20.30;95.90
12833;DHT22;6483;51.310;4.462;2023-09-19T09:23:40;20.40;88.40
12833;DHT22;6483;51.310;4.462;2023-09-19T09:26:05;19.90;88.10
12833;DHT22;6483;51.310;4.462;2023-09-19T09:28:33;19.40;93.80
12833;DHT22;6483;51.310;4.462;2023-09-19T09:31:01;19.30;99.90
12833;DHT22;6483;51.310;4.462;2023-09-19T09:33:35;19.40;98.50
12833;DHT22;6483;51.310;4.462;2023-09-19T09:36:02;19.70;97.20
12833;DHT22;6483;51.310;4.462;2023-09-19T09:38:48;19.50;91.00
12833;DHT22;6483;51.310;4.462;2023-09-19T09:41:16;19.60;94.40
12833;DHT22;6483;51.310;4.462;2023-09-19T09:43:53;19.60;91.40
12833;DHT22;6483;51.310;4.462;2023-09-19T09:46:23;19.40;85.50
12833;DHT22;6483;51.310;4.462;2023-09-19T09:52:21;20.10;71.30
12833;DHT22;6483;51.310;4.462;2023-09-19T09:54:59;20.30;59.20
12833;DHT22;6483;51.310;4.462;2023-09-19T09:57:29;20.80;48.70
12833;DHT22;6483;51.310;4.462;2023-09-19T09:59:59;21.40;48.30
12833;DHT22;6483;51.310;4.462;2023-09-19T10:02:38;21.80;32.30
12833;DHT22;6483;51.310;4.462;2023-09-19T10:05:25;22.10;21.30
12833;DHT22;6483;51.310;4.462;2023-09-19T10:08:12;21.50;17.40
12833;DHT22;6483;51.310;4.462;2023-09-19T10:10:44;21.40;21.50
12833;DHT22;6483;51.310;4.462;2023-09-19T10:13:20;21.20;21.30
12833;DHT22;6483;51.310;4.462;2023-09-19T10:15:51;21.60;21.90
12833;DHT22;6483;51.310;4.462;2023-09-19T10:18:22;21.60;19.60
12833;DHT22;6483;51.310;4.462;2023-09-19T10:20:48;22.00;19.90
12833;DHT22;6483;51.310;4.462;2023-09-19T10:23:20;21.80;15.20
12833;DHT22;6483;51.310;4.462;2023-09-19T10:25:52;22.40;21.40
12833;DHT22;6483;51.310;4.462;2023-09-19T10:28:19;22.70;25.90
12833;DHT22;6483;51.310;4.462;2023-09-19T10:30:50;23.00;37.90
12833;DHT22;6483;51.310;4.462;2023-09-19T10:33:19;22.60;32.30
12833;DHT22;6483;51.310;4.462;2023-09-19T10:35:51;22.80;31.20
12833;DHT22;6483;51.310;4.462;2023-09-19T10:38:23;23.00;30.60
12833;DHT22;6483;51.310;4.462;2023-09-19T10:40:51;22.60;29.90
12833;DHT22;6483;51.310;4.462;2023-09-19T10:43:20;22.30;25.00
12833;DHT22;6483;51.310;4.462;2023-09-19T10:45:47;22.10;25.30
12833;DHT22;6483;51.310;4.462;2023-09-19T10:48:18;22.30;20.00
12833;DHT22;6483;51.310;4.462;2023-09-19T10:51:02;22.40;19.70
12833;DHT22;6483;51.310;4.462;2023-09-19T10:53:50;23.00;20.50
12833;DHT22;6483;51.310;4.462;2023-09-19T10:56:34;22.50;26.00
12833;DHT22;6483;51.310;4.462;2023-09-19T10:59:25;22.60;21.50
12833;DHT22;6483;51.310;4.462;2023-09-19T11:01:55;23.10;24.00
12833;DHT22;6483;51.310;4.462;2023-09-19T11:04:41;23.60;17.20
12833;DHT22;6483;51.310;4.462;2023-09-19T11:07:14;23.10;26.00
12833;DHT22;6483;51.310;4.462;2023-09-19T11:15:09;23.60;19.80
12833;DHT22;6483;51.310;4.462;2023-09-19T11:17:45;22.90;20.70
12833;DHT22;6483;51.310;4.462;2023-09-19T11:20:21;22.50;18.60
12833;DHT22;6483;51.310;4.462;2023-09-19T11:23:19;22.40;22.90
12833;DHT22;6483;51.310;4.462;2023-09-19T11:25:48;21.90;22.50
12833;DHT22;6483;51.310;4.462;2023-09-19T11:30:54;21.70;23.20
12833;DHT22;6483;51.310;4.462;2023-09-19T11:33:27;22.00;18.20
12833;DHT22;6483;51.310;4.462;2023-09-19T11:36:13;21.70;23.90
12833;DHT22;6483;51.310;4.462;2023-09-19T11:41:37;21.20;22.00
12833;DHT22;6483;51.310;4.462;2023-09-19T11:47:04;21.10;26.60
12833;DHT22;6483;51.310;4.462;2023-09-19T11:49:32;20.80;31.00
12833;DHT22;6483;51.310;4.462;2023-09-19T11:52:00;20.60;32.60
12833;DHT22;6483;51.310;4.462;2023-09-19T11:54:35;20.60;29.10
12833;DHT22;6483;51.310;4.462;2023-09-19T11:57:03;21.40;26.00
12833;DHT22;6483;51.310;4.462;2023-09-19T11:59:31;22.70;20.60
12833;DHT22;6483;51.310;4.462;2023-09-19T12:01:58;23.60;15.20
12833;DHT22;6483;51.310;4.462;2023-09-19T12:04:42;24.00;18.50
12833;DHT22;6483;51.310;4.462;2023-09-19T12:07:13;23.70;20.60
12833;DHT22;6483;51.310;4.462;2023-09-19T12:09:48;23.30;20.30
12833;DHT22;6483;51.310;4.462;2023-09-19T12:12:26;23.00;16.60
12833;DHT22;6483;51.310;4.462;2023-09-19T12:15:01;22.40;19.00
12833;DHT22;6483;51.310;4.462;2023-09-19T12:17:41;22.00;18.90
12833;DHT22;6483;51.310;4.462;2023-09-19T12:20:08;22.00;19.30
12833;DHT22;6483;51.310;4.462;2023-09-19T12:22:42;21.60;19.90
12833;DHT22;6483;51.310;4.462;2023-09-19T12:25:49;21.20;22.50
12833;DHT22;6483;51.310;4.462;2023-09-19T12:28:22;21.00;22.00
12833;DHT22;6483;51.310;4.462;2023-09-19T12:30:50;20.70;31.60
12833;DHT22;6483;51.310;4.462;2023-09-19T12:33:18;20.50;29.30
12833;DHT22;6483;51.310;4.462;2023-09-19T12:35:48;20.30;35.70
12833;DHT22;6483;51.310;4.462;2023-09-19T12:38:28;20.20;41.80
12833;DHT22;6483;51.310;4.462;2023-09-19T12:40:57;20.20;49.60
12833;DHT22;6483;51.310;4.462;2023-09-19T12:43:25;20.20;47.80
12833;DHT22;6483;51.310;4.462;2023-09-19T12:45:52;20.20;47.80
12833;DHT22;6483;51.310;4.462;2023-09-19T12:48:20;20.30;47.20
12833;DHT22;6483;51.310;4.462;2023-09-19T12:51:15;20.40;51.80
12833;DHT22;6483;51.310;4.462;2023-09-19T12:53:44;20.60;48.30
12833;DHT22;6483;51.310;4.462;2023-09-19T12:56:44;20.80;41.40
12833;DHT22;6483;51.310;4.462;2023-09-19T12:59:12;20.80;42.00
12833;DHT22;6483;51.310;4.462;2023-09-19T13:01:39;20.60;34.80
12833;DHT22;6483;51.310;4.462;2023-09-19T13:04:37;20.50;33.80
12833;DHT22;6483;51.310;4.462;2023-09-19T13:07:44;20.40;41.60
12833;DHT22;6483;51.310;4.462;2023-09-19T13:10:13;20.40;45.00
12833;DHT22;6483;51.310;4.462;2023-09-19T13:12:43;20.40;42.40
12833;DHT22;6483;51.310;4.462;2023-09-19T13:15:18;20.70;45.00
12833;DHT22;6483;51.310;4.462;2023-09-19T13:18:11;21.10;32.90
12833;DHT22;6483;51.310;4.462;2023-09-19T13:20:39;20.90;29.80
12833;DHT22;6483;51.310;4.462;2023-09-19T13:23:29;20.80;34.10
12833;DHT22;6483;51.310;4.462;2023-09-19T13:25:54;20.70;34.50
12833;DHT22;6483;51.310;4.462;2023-09-19T13:28:20;20.80;36.40
12833;DHT22;6483;51.310;4.462;2023-09-19T13:30:48;20.90;38.60
12833;DHT22;6483;51.310;4.462;2023-09-19T13:33:14;21.00;32.20
12833;DHT22;6483;51.310;4.462;2023-09-19T13:35:47;20.90;28.50
12833;DHT22;6483;51.310;4.462;2023-09-19T13:38:14;20.80;31.10
12833;DHT22;6483;51.310;4.462;2023-09-19T13:40:40;20.90;37.50
12833;DHT22;6483;51.310;4.462;2023-09-19T13:43:08;21.00;30.90
12833;DHT22;6483;51.310;4.462;2023-09-19T13:45:37;21.10;31.40
12833;DHT22;6483;51.310;4.462;2023-09-19T13:48:06;21.40;29.60
12833;DHT22;6483;51.310;4.462;2023-09-19T13:50:34;21.70;23.80
12833;DHT22;6483;51.310;4.462;2023-09-19T13:53:03;22.00;22.60
12833;DHT22;6483;51.310;4.462;2023-09-19T13:55:29;22.00;21.30
12833;DHT22;6483;51.310;4.462;2023-09-19T13:57:54;22.40;18.60
12833;DHT22;6483;51.310;4.462;2023-09-19T14:00:21;22.50;19.40
12833;DHT22;6483;51.310;4.462;2023-09-19T14:02:51;22.90;17.10
12833;DHT22;6483;51.310;4.462;2023-09-19T14:05:17;22.90;16.40
12833;DHT22;6483;51.310;4.462;2023-09-19T14:07:49;23.10;16.40
12833;DHT22;6483;51.310;4.462;2023-09-19T14:10:14;23.60;19.10
12833;DHT22;6483;51.310;4.462;2023-09-19T14:12:48;23.60;12.60
12833;DHT22;6483;51.310;4.462;2023-09-19T14:15:14;22.70;12.80
12833;DHT22;6483;51.310;4.462;2023-09-19T14:17:40;22.40;16.30
12833;DHT22;6483;51.310;4.462;2023-09-19T14:20:28;22.00;17.80
12833;DHT22;6483;51.310;4.462;2023-09-19T14:22:56;21.70;25.50
12833;DHT22;6483;51.310;4.462;2023-09-19T14:25:23;21.60;26.60
12833;DHT22;6483;51.310;4.462;2023-09-19T14:27:50;21.20;32.20
12833;DHT22;6483;51.310;4.462;2023-09-19T14:30:15;20.90;43.30
12833;DHT22;6483;51.310;4.462;2023-09-19T14:32:42;20.70;48.00
12833;DHT22;6483;51.310;4.462;2023-09-19T14:35:08;20.60;51.40
12833;DHT22;6483;51.310;4.462;2023-09-19T14:37:36;20.30;57.40
12833;DHT22;6483;51.310;4.462;2023-09-19T14:40:07;20.30;68.70
12833;DHT22;6483;51.310;4.462;2023-09-19T14:42:38;20.20;71.70
12833;DHT22;6483;51.310;4.462;2023-09-19T14:45:06;20.20;73.20
12833;DHT22;6483;51.310;4.462;2023-09-19T14:47:33;20.20;64.70
12833;DHT22;6483;51.310;4.462;2023-09-19T14:50:09;20.10;61.90
12833;DHT22;6483;51.310;4.462;2023-09-19T14:52:35;20.00;58.90
12833;DHT22;6483;51.310;4.462;2023-09-19T14:55:02;20.00;69.00
12833;DHT22;6483;51.310;4.462;2023-09-19T14:57:27;20.00;83.20
12833;DHT22;6483;51.310;4.462;2023-09-19T14:59:54;20.10;86.70
12833;DHT22;6483;51.310;4.462;2023-09-19T15:02:24;20.10;84.60
12833;DHT22;6483;51.310;4.462;2023-09-19T15:04:55;20.00;89.90
12833;DHT22;6483;51.310;4.462;2023-09-19T15:07:20;19.90;91.30
12833;DHT22;6483;51.310;4.462;2023-09-19T15:09:49;19.80;94.20
12833;DHT22;6483;51.310;4.462;2023-09-19T15:12:18;19.80;95.80
12833;DHT22;6483;51.310;4.462;2023-09-19T15:14:43;19.80;96.10
12833;DHT22;6483;51.310;4.462;2023-09-19T15:17:12;19.70;96.40
12833;DHT22;6483;51.310;4.462;2023-09-19T15:19:38;19.70;99.90
12833;DHT22;6483;51.310;4.462;2023-09-19T15:22:07;19.60;99.90
12833;DHT22;6483;51.310;4.462;2023-09-19T15:24:33;19.60;99.90
12833;DHT22;6483;51.310;4.462;2023-09-19T15:26:58;19.50;99.90
12833;DHT22;6483;51.310;4.462;2023-09-19T15:29:24;19.50;99.90
12833;DHT22;6483;51.310;4.462;2023-09-19T15:31:50;19.60;99.90
12833;DHT22;6483;51.310;4.462;2023-09-19T15:34:18;19.60;97.70
12833;DHT22;6483;51.310;4.462;2023-09-19T15:36:44;19.70;98.20
12833;DHT22;6483;51.310;4.462;2023-09-19T15:39:11;19.70;99.90
12833;DHT22;6483;51.310;4.462;2023-09-19T15:41:38;19.70;99.90
12833;DHT22;6483;51.310;4.462;2023-09-19T15:44:10;19.80;99.90
12833;DHT22;6483;51.310;4.462;2023-09-19T15:46:36;19.70;99.90
12833;DHT22;6483;51.310;4.462;2023-09-19T15:49:03;19.70;99.90
12833;DHT22;6483;51.310;4.462;2023-09-19T15:51:32;19.60;99.90
12833;DHT22;6483;51.310;4.462;2023-09-19T15:53:58;19.60;99.90
12833;DHT22;6483;51.310;4.462;2023-09-19T15:56:25;19.50;99.90
12833;DHT22;6483;51.310;4.462;2023-09-19T15:58:55;19.50;99.90
12833;DHT22;6483;51.310;4.462;2023-09-19T16:01:24;19.40;99.90
12833;DHT22;6483;51.310;4.462;2023-09-19T16:03:52;19.40;99.90
12833;DHT22;6483;51.310;4.462;2023-09-19T16:06:24;19.40;99.90
12833;DHT22;6483;51.310;4.462;2023-09-19T16:08:58;19.30;99.90
12833;DHT22;6483;51.310;4.462;2023-09-19T16:11:42;19.30;99.90
12833;DHT22;6483;51.310;4.462;2023-09-19T16:14:10;17.80;99.90
12833;DHT22;6483;51.310;4.462;2023-09-19T16:16:37;19.30;99.90
12833;DHT22;6483;51.310;4.462;2023-09-19T16:19:03;19.30;99.90
12833;DHT22;6483;51.310;4.462;2023-09-19T16:21:32;19.30;99.90
12833;DHT22;6483;51.310;4.462;2023-09-19T16:23:59;19.30;99.90
12833;DHT22;6483;51.310;4.462;2023-09-19T16:26:27;19.30;99.90
12833;DHT22;6483;51.310;4.462;2023-09-19T16:28:55;19.30;99.90